createdAt,value
2022-11-02T00:00:18.335Z,8.30
2022-11-02T00:02:46.366Z,8.20
2022-11-02T00:05:15.059Z,8.20
2022-11-02T00:07:43.327Z,8.20
2022-11-02T00:10:11.800Z,8.20
2022-11-02T00:12:39.706Z,8.10
2022-11-02T00:15:09.277Z,8.10
2022-11-02T00:17:39.522Z,8.10
2022-11-02T00:20:09.809Z,8.10
2022-11-02T00:22:38.390Z,8.10
2022-11-02T00:25:08.908Z,8.10
2022-11-02T00:27:36.846Z,8.20
2022-11-02T00:30:05.417Z,8.20
2022-11-02T00:32:33.368Z,8.20
2022-11-02T00:35:02.681Z,8.20
2022-11-02T00:37:30.690Z,8.30
2022-11-02T00:39:58.763Z,8.30
2022-11-02T00:42:26.705Z,8.30
2022-11-02T00:44:54.809Z,8.30
2022-11-02T00:47:22.765Z,8.30
2022-11-02T00:49:50.656Z,8.40
2022-11-02T00:52:19.927Z,8.40
2022-11-02T00:54:51.089Z,8.40
2022-11-02T00:57:19.448Z,8.50
2022-11-02T00:59:47.414Z,8.60
2022-11-02T01:02:17.595Z,8.50
2022-11-02T01:04:45.658Z,8.50
2022-11-02T01:07:13.564Z,8.60
2022-11-02T01:09:42.836Z,8.60
2022-11-02T01:12:10.769Z,8.60
2022-11-02T01:14:38.718Z,8.60
2022-11-02T01:17:06.630Z,8.60
2022-11-02T01:19:34.560Z,8.60
2022-11-02T01:22:02.515Z,8.60
2022-11-02T01:24:31.297Z,8.60
2022-11-02T01:27:00.560Z,8.60
2022-11-02T01:29:28.584Z,8.60
2022-11-02T01:31:56.494Z,8.60
2022-11-02T01:34:24.579Z,8.60
2022-11-02T01:36:52.583Z,8.70
2022-11-02T01:39:20.488Z,8.70
2022-11-02T01:41:52.999Z,8.80
2022-11-02T01:44:33.650Z,8.80
2022-11-02T01:47:08.351Z,8.80
2022-11-02T01:49:39.853Z,8.80
2022-11-02T01:52:11.403Z,8.90
2022-11-02T01:54:43.232Z,9.00
2022-11-02T01:57:14.482Z,9.20
2022-11-02T01:59:47.498Z,9.30
2022-11-02T02:02:18.871Z,9.30
2022-11-02T02:04:51.719Z,9.40
2022-11-02T02:07:20.783Z,9.40
2022-11-02T02:09:51.352Z,9.50
2022-11-02T02:12:21.015Z,9.50
2022-11-02T02:14:52.138Z,9.50
2022-11-02T02:17:42.206Z,9.50
2022-11-02T02:20:18.729Z,9.50
2022-11-02T02:23:28.828Z,9.50
2022-11-02T02:26:18.763Z,9.50
2022-11-02T02:28:51.760Z,9.50
2022-11-02T02:31:25.162Z,9.50
2022-11-02T02:34:05.387Z,9.50
2022-11-02T02:36:38.333Z,9.40
2022-11-02T02:39:11.842Z,9.30
2022-11-02T02:41:41.963Z,9.20
2022-11-02T02:44:15.803Z,9.20
2022-11-02T02:46:53.589Z,9.20
2022-11-02T02:49:30.838Z,9.10
2022-11-02T02:52:00.000Z,9.20
2022-11-02T02:54:36.664Z,9.30
2022-11-02T02:57:09.720Z,9.50
2022-11-02T02:59:42.405Z,9.50
2022-11-02T03:02:18.248Z,9.60
2022-11-02T03:04:46.324Z,9.70
2022-11-02T03:07:19.154Z,9.80
2022-11-02T03:09:53.108Z,9.90
2022-11-02T03:12:32.965Z,10.00
2022-11-02T03:15:11.942Z,10.00
2022-11-02T03:17:56.957Z,10.00
2022-11-02T03:20:31.719Z,10.20
2022-11-02T03:23:09.323Z,10.20
2022-11-02T03:25:48.755Z,10.30
2022-11-02T03:28:27.032Z,10.30
2022-11-02T03:31:00.776Z,10.40
2022-11-02T03:33:35.856Z,10.40
2022-11-02T03:36:10.100Z,10.50
2022-11-02T03:38:42.656Z,10.50
2022-11-02T03:41:11.600Z,10.50
2022-11-02T03:43:41.418Z,10.60
2022-11-02T03:46:13.009Z,10.60
2022-11-02T03:48:45.370Z,10.60
2022-11-02T03:51:20.682Z,10.70
2022-11-02T03:53:54.407Z,10.60
2022-11-02T03:56:26.339Z,10.60
2022-11-02T03:58:55.447Z,10.50
2022-11-02T04:01:27.712Z,10.40
2022-11-02T04:03:56.700Z,10.30
2022-11-02T04:06:25.490Z,10.30
2022-11-02T04:08:54.047Z,10.20
2022-11-02T04:11:40.196Z,10.10
2022-11-02T04:14:29.112Z,10.00
2022-11-02T04:17:13.865Z,10.00
2022-11-02T04:19:49.686Z,10.00
2022-11-02T04:22:36.773Z,10.00
2022-11-02T04:25:18.397Z,9.90
2022-11-02T04:28:15.389Z,9.90
2022-11-02T04:30:59.752Z,9.90
2022-11-02T04:33:35.651Z,10.00
2022-11-02T04:36:11.968Z,10.00
2022-11-02T04:38:40.464Z,10.10
2022-11-02T04:41:33.155Z,10.10
2022-11-02T04:44:01.774Z,10.20
2022-11-02T04:46:32.140Z,10.20
2022-11-02T04:49:01.631Z,10.10
2022-11-02T04:51:33.523Z,10.10
2022-11-02T04:54:02.948Z,10.00
2022-11-02T04:56:31.732Z,10.00
2022-11-02T04:59:01.128Z,9.90
2022-11-02T05:01:32.116Z,10.00
2022-11-02T05:04:03.370Z,10.00
2022-11-02T05:06:33.863Z,10.00
2022-11-02T05:09:02.061Z,10.10
2022-11-02T05:11:30.265Z,10.20
2022-11-02T05:13:59.178Z,10.20
2022-11-02T05:16:28.425Z,10.20
2022-11-02T05:18:56.472Z,10.30
2022-11-02T05:21:26.978Z,10.20
2022-11-02T05:23:56.785Z,10.30
2022-11-02T05:26:24.915Z,10.30
2022-11-02T05:28:52.936Z,10.20
2022-11-02T05:31:22.063Z,10.20
2022-11-02T05:33:51.141Z,10.10
2022-11-02T05:36:22.412Z,10.00
2022-11-02T05:38:55.334Z,9.90
2022-11-02T05:41:23.758Z,9.80
2022-11-02T05:43:54.631Z,9.80
2022-11-02T05:46:24.391Z,9.70
2022-11-02T05:48:52.337Z,9.60
2022-11-02T05:51:20.306Z,9.60
2022-11-02T05:53:48.309Z,9.60
2022-11-02T05:56:23.740Z,9.60
2022-11-02T05:58:54.590Z,9.50
2022-11-02T06:01:22.616Z,9.50
2022-11-02T06:03:53.451Z,9.50
2022-11-02T06:06:21.964Z,9.60
2022-11-02T06:08:50.061Z,9.60
2022-11-02T06:11:19.749Z,9.60
2022-11-02T06:13:50.481Z,9.70
2022-11-02T06:16:23.055Z,9.80
2022-11-02T06:18:51.537Z,9.80
2022-11-02T06:21:19.684Z,9.80
2022-11-02T06:23:48.882Z,9.80
2022-11-02T06:26:16.803Z,9.70
2022-11-02T06:28:46.071Z,9.70
2022-11-02T06:31:17.205Z,9.70
2022-11-02T06:33:45.513Z,9.70
2022-11-02T06:36:13.479Z,9.70
2022-11-02T06:38:42.022Z,9.70
2022-11-02T06:41:10.387Z,9.70
2022-11-02T06:43:39.631Z,9.80
2022-11-02T06:46:09.021Z,9.80
2022-11-02T06:48:36.981Z,9.80
2022-11-02T06:51:06.283Z,9.80
2022-11-02T06:53:34.524Z,9.80
2022-11-02T06:56:02.571Z,9.80
2022-11-02T06:58:30.940Z,9.80
2022-11-02T07:01:00.728Z,9.80
2022-11-02T07:03:30.527Z,9.90
2022-11-02T07:05:58.520Z,9.80
2022-11-02T07:08:27.236Z,9.80
2022-11-02T07:10:55.718Z,9.80
2022-11-02T07:13:23.658Z,9.80
2022-11-02T07:15:54.046Z,9.80
2022-11-02T07:18:22.129Z,9.80
2022-11-02T07:20:51.604Z,9.80
2022-11-02T07:23:23.543Z,9.90
2022-11-02T07:25:51.491Z,9.90
2022-11-02T07:28:19.472Z,9.90
2022-11-02T07:30:47.576Z,10.00
2022-11-02T07:33:15.532Z,10.00
2022-11-02T07:35:43.709Z,10.10
2022-11-02T07:38:13.024Z,10.10
2022-11-02T07:40:41.237Z,10.20
2022-11-02T07:43:09.625Z,10.20
2022-11-02T07:45:42.292Z,10.20
2022-11-02T07:48:10.180Z,10.10
2022-11-02T07:50:38.120Z,10.20
2022-11-02T07:53:06.258Z,10.10
2022-11-02T07:55:35.784Z,10.10
2022-11-02T07:58:05.797Z,10.10
2022-11-02T08:00:35.822Z,10.10
2022-11-02T08:03:05.814Z,10.20
2022-11-02T08:05:36.580Z,10.20
2022-11-02T08:08:06.666Z,10.20
2022-11-02T08:10:38.929Z,10.30
2022-11-02T08:13:08.299Z,10.50
2022-11-02T08:15:36.570Z,10.60
2022-11-02T08:18:06.180Z,10.70
2022-11-02T08:20:36.506Z,10.80
2022-11-02T08:23:04.874Z,10.80
2022-11-02T08:25:33.356Z,10.80
2022-11-02T08:28:03.285Z,10.80
2022-11-02T08:30:32.793Z,10.90
2022-11-02T08:33:04.688Z,10.90
2022-11-02T08:35:32.992Z,11.00
2022-11-02T08:38:00.940Z,11.00
2022-11-02T08:40:29.131Z,11.00
2022-11-02T08:42:57.948Z,11.00
2022-11-02T08:45:27.714Z,11.10
2022-11-02T08:47:55.860Z,11.30
2022-11-02T08:50:25.068Z,11.30
2022-11-02T08:52:53.256Z,11.50
2022-11-02T08:55:21.667Z,11.60
2022-11-02T08:57:50.725Z,11.70
2022-11-02T09:00:20.312Z,11.80
2022-11-02T09:03:01.552Z,11.90
2022-11-02T09:05:30.599Z,12.00
2022-11-02T09:08:00.080Z,11.90
2022-11-02T09:10:28.808Z,11.90
2022-11-02T09:12:56.823Z,12.00
2022-11-02T09:15:24.776Z,12.10
2022-11-02T09:17:52.835Z,12.10
2022-11-02T09:20:22.851Z,12.10
2022-11-02T09:22:50.832Z,12.10
2022-11-02T09:25:19.074Z,12.20
2022-11-02T09:27:50.443Z,12.30
2022-11-02T09:30:23.046Z,12.40
2022-11-02T09:33:01.179Z,12.50
2022-11-02T09:35:32.331Z,12.50
2022-11-02T09:38:00.366Z,12.40
2022-11-02T09:40:29.808Z,12.30
2022-11-02T09:43:09.579Z,12.20
2022-11-02T09:45:43.171Z,12.10
2022-11-02T09:48:18.896Z,12.10
2022-11-02T09:50:59.274Z,12.00
2022-11-02T09:53:46.007Z,12.00
2022-11-02T09:56:17.060Z,12.00
2022-11-02T09:58:48.244Z,12.20
2022-11-02T10:01:33.027Z,12.20
2022-11-02T10:04:30.622Z,12.10
2022-11-02T10:07:08.428Z,12.00
2022-11-02T10:09:46.531Z,12.00
2022-11-02T10:12:17.827Z,11.90
2022-11-02T10:14:56.054Z,12.00
2022-11-02T10:17:27.186Z,12.00
2022-11-02T10:19:57.362Z,12.10
2022-11-02T10:22:33.224Z,12.10
2022-11-02T10:25:05.000Z,12.00
2022-11-02T10:27:38.029Z,12.00
2022-11-02T10:30:08.745Z,12.00
2022-11-02T10:32:38.521Z,11.90
2022-11-02T10:35:36.772Z,11.90
2022-11-02T10:38:18.120Z,11.90
2022-11-02T10:40:59.836Z,11.90
2022-11-02T10:43:45.241Z,11.90
2022-11-02T10:46:38.121Z,11.90
2022-11-02T10:49:14.655Z,11.90
2022-11-02T10:51:42.758Z,11.90
2022-11-02T10:54:19.479Z,11.90
2022-11-02T10:56:51.908Z,12.00
2022-11-02T10:59:23.553Z,12.00
2022-11-02T11:02:09.608Z,12.00
2022-11-02T11:04:37.590Z,12.10
2022-11-02T11:07:07.632Z,12.20
2022-11-02T11:09:42.919Z,12.30
2022-11-02T11:12:20.674Z,12.50
2022-11-02T11:20:36.238Z,12.90
2022-11-02T11:23:25.773Z,12.90
2022-11-02T11:25:59.960Z,12.90
2022-11-02T11:28:31.625Z,13.00
2022-11-02T11:31:06.016Z,13.00
2022-11-02T11:33:41.980Z,12.90
2022-11-02T11:36:11.404Z,12.70
2022-11-02T11:38:48.472Z,12.70
2022-11-02T11:41:18.725Z,12.70
2022-11-02T11:43:48.397Z,12.70
2022-11-02T11:46:18.226Z,12.80
2022-11-02T11:48:50.025Z,12.90
2022-11-02T11:51:31.704Z,12.80
2022-11-02T11:54:20.226Z,12.80
2022-11-02T11:56:51.140Z,12.90
2022-11-02T11:59:22.396Z,13.10
2022-11-02T12:01:52.261Z,13.10
2022-11-02T12:04:29.264Z,13.10
2022-11-02T12:07:19.325Z,13.00
2022-11-02T12:09:54.273Z,13.00
2022-11-02T12:12:32.479Z,13.00
2022-11-02T12:15:11.544Z,13.00
2022-11-02T12:17:55.499Z,13.00
2022-11-02T12:20:43.106Z,13.10
2022-11-02T12:23:26.194Z,13.10
2022-11-02T12:26:04.821Z,13.10
2022-11-02T12:28:44.576Z,13.10
2022-11-02T12:31:21.999Z,13.10
2022-11-02T12:34:03.657Z,13.10
2022-11-02T12:37:18.667Z,13.10
2022-11-02T12:39:51.492Z,13.10
2022-11-02T12:42:27.617Z,13.10
2022-11-02T12:45:15.743Z,13.00
2022-11-02T12:47:56.054Z,12.90
2022-11-02T12:50:37.880Z,12.80
2022-11-02T12:53:22.712Z,12.70
2022-11-02T12:55:55.186Z,12.60
2022-11-02T12:58:27.165Z,12.60
2022-11-02T13:01:03.139Z,12.60
2022-11-02T13:03:39.637Z,12.60
2022-11-02T13:06:13.897Z,12.60
2022-11-02T13:08:46.998Z,12.70
2022-11-02T13:11:19.592Z,12.80
2022-11-02T13:13:52.125Z,12.90
2022-11-02T13:16:29.187Z,13.00
2022-11-02T13:19:01.428Z,13.00
2022-11-02T13:21:38.565Z,13.10
2022-11-02T13:24:16.806Z,13.10
2022-11-02T13:26:53.194Z,13.20
2022-11-02T13:29:37.992Z,13.20
2022-11-02T13:32:14.441Z,13.20
2022-11-02T13:34:46.772Z,13.20
2022-11-02T13:37:20.647Z,13.20
2022-11-02T13:39:53.425Z,13.10
2022-11-02T13:42:38.853Z,13.10
2022-11-02T13:45:39.141Z,13.10
2022-11-02T13:48:36.293Z,13.10
2022-11-02T13:51:08.434Z,13.20
2022-11-02T13:53:39.921Z,13.30
2022-11-02T13:56:10.937Z,13.40
2022-11-02T13:58:45.174Z,13.40
2022-11-02T14:01:18.839Z,13.50
2022-11-02T14:03:53.175Z,13.50
2022-11-02T14:06:24.066Z,13.50
2022-11-02T14:08:56.593Z,13.50
2022-11-02T14:11:35.985Z,13.50
2022-11-02T14:14:20.042Z,13.40
2022-11-02T14:16:59.672Z,13.40
2022-11-02T14:19:33.573Z,13.40
2022-11-02T14:22:13.598Z,13.40
2022-11-02T14:25:13.178Z,13.40
2022-11-02T14:27:41.122Z,13.40
2022-11-02T14:30:45.504Z,13.40
2022-11-02T14:33:54.514Z,13.30
2022-11-02T14:36:43.411Z,13.30
2022-11-02T14:39:20.756Z,13.30
2022-11-02T14:42:09.172Z,13.20
2022-11-02T14:45:20.661Z,13.20
2022-11-02T14:47:48.904Z,13.20
2022-11-02T14:50:20.066Z,13.20
2022-11-02T14:53:01.005Z,13.20
2022-11-02T14:55:32.127Z,13.10
2022-11-02T14:58:10.352Z,13.10
2022-11-02T15:00:55.552Z,13.10
2022-11-02T15:03:32.584Z,13.00
2022-11-02T15:06:03.856Z,13.00
2022-11-02T15:08:36.881Z,13.00
2022-11-02T15:11:42.480Z,12.90
2022-11-02T15:14:31.948Z,12.90
2022-11-02T15:17:00.231Z,12.80
2022-11-02T15:19:39.441Z,12.80
2022-11-02T15:22:37.400Z,12.70
2022-11-02T15:25:13.612Z,12.60
2022-11-02T15:27:44.082Z,12.60
2022-11-02T15:30:15.747Z,12.50
2022-11-02T15:32:48.382Z,12.40
2022-11-02T15:35:20.074Z,12.30
2022-11-02T15:38:11.423Z,12.20
2022-11-02T15:40:49.444Z,12.20
2022-11-02T15:43:38.040Z,12.10
2022-11-02T15:46:14.859Z,12.00
2022-11-02T15:48:49.934Z,11.90
2022-11-02T15:51:26.563Z,11.80
2022-11-02T15:54:14.776Z,11.70
2022-11-02T15:56:56.094Z,11.50
2022-11-02T15:59:50.840Z,11.40
2022-11-02T16:02:24.264Z,11.30
2022-11-02T16:04:54.591Z,11.20
2022-11-02T16:07:29.141Z,11.10
2022-11-02T16:10:20.624Z,11.00
2022-11-02T16:12:57.669Z,11.00
2022-11-02T16:15:26.201Z,10.90
2022-11-02T16:17:54.879Z,10.70
2022-11-02T16:20:25.296Z,10.60
2022-11-02T16:22:56.668Z,10.50
2022-11-02T16:25:36.777Z,10.40
2022-11-02T16:28:20.524Z,10.40
2022-11-02T16:31:05.465Z,10.30
2022-11-02T16:33:40.205Z,10.20
2022-11-02T16:36:10.081Z,10.10
2022-11-02T16:38:39.229Z,10.10
2022-11-02T16:41:09.661Z,10.00
2022-11-02T16:43:45.742Z,9.90
2022-11-02T16:46:17.774Z,9.80
2022-11-02T16:49:12.931Z,9.80
2022-11-02T16:51:41.192Z,9.70
2022-11-02T16:54:39.184Z,9.60
2022-11-02T16:57:14.221Z,9.60
2022-11-02T16:59:52.165Z,9.60
2022-11-02T17:02:25.894Z,9.50
2022-11-02T17:05:00.677Z,9.50
2022-11-02T17:07:35.132Z,9.50
2022-11-02T17:10:06.294Z,9.40
2022-11-02T17:12:37.846Z,9.40
2022-11-02T17:15:19.247Z,9.30
2022-11-02T17:17:47.978Z,9.20
2022-11-02T17:20:22.833Z,9.10
2022-11-02T17:22:53.987Z,9.20
2022-11-02T17:25:24.632Z,9.20
2022-11-02T17:27:53.688Z,9.10
2022-11-02T17:30:45.366Z,9.10
2022-11-02T17:33:28.063Z,9.20
2022-11-02T17:35:57.666Z,9.10
2022-11-02T17:38:27.520Z,9.10
2022-11-02T17:40:55.916Z,9.00
2022-11-02T17:43:23.881Z,8.90
2022-11-02T17:45:57.582Z,8.90
2022-11-02T17:48:28.400Z,8.90
2022-11-02T17:50:59.499Z,8.90
2022-11-02T17:53:27.516Z,8.80
2022-11-02T17:55:56.141Z,8.80
2022-11-02T17:58:24.071Z,8.80
2022-11-02T18:00:54.373Z,8.70
2022-11-02T18:03:29.839Z,8.70
2022-11-02T18:06:00.620Z,8.60
2022-11-02T18:08:29.093Z,8.60
2022-11-02T18:10:57.121Z,8.60
2022-11-02T18:13:25.819Z,8.50
2022-11-02T18:15:54.088Z,8.60
2022-11-02T18:18:23.456Z,8.50
2022-11-02T18:20:51.382Z,8.50
2022-11-02T18:23:20.289Z,8.50
2022-11-02T18:25:48.259Z,8.50
2022-11-02T18:28:16.250Z,8.50
2022-11-02T18:30:44.869Z,8.40
2022-11-02T18:33:14.143Z,8.40
2022-11-02T18:35:44.237Z,8.40
2022-11-02T18:38:12.764Z,8.40
2022-11-02T18:40:40.700Z,8.40
2022-11-02T18:43:09.036Z,8.40
2022-11-02T18:45:37.356Z,8.40
2022-11-02T18:48:05.600Z,8.30
2022-11-02T18:50:33.839Z,8.30
2022-11-02T18:53:03.133Z,8.30
2022-11-02T18:55:31.071Z,8.30
2022-11-02T18:57:59.087Z,8.30
2022-11-02T19:00:27.014Z,8.30
2022-11-02T19:02:54.950Z,8.40
2022-11-02T19:05:42.707Z,8.40
2022-11-02T19:08:29.833Z,8.40
2022-11-02T19:10:57.754Z,8.40
2022-11-02T19:13:25.765Z,8.40
2022-11-02T19:15:54.122Z,8.40
2022-11-02T19:18:22.060Z,8.30
2022-11-02T19:20:49.948Z,8.30
2022-11-02T19:23:19.199Z,8.30
2022-11-02T19:25:51.389Z,8.20
2022-11-02T19:28:19.301Z,8.20
2022-11-02T19:30:47.436Z,8.20
2022-11-02T19:33:15.400Z,8.20
2022-11-02T19:35:43.345Z,8.20
2022-11-02T19:38:11.422Z,8.20
2022-11-02T19:40:40.674Z,8.20
2022-11-02T19:43:08.991Z,8.10
2022-11-02T19:45:37.059Z,8.10
2022-11-02T19:48:05.630Z,8.10
2022-11-02T19:50:33.899Z,8.10
2022-11-02T19:53:01.796Z,8.10
2022-11-02T19:55:29.845Z,8.10
2022-11-02T19:57:59.104Z,8.00
2022-11-02T20:00:27.054Z,8.00
2022-11-02T20:02:55.065Z,8.00
2022-11-02T20:05:23.106Z,8.00
2022-11-02T20:07:52.352Z,7.90
2022-11-02T20:10:20.307Z,7.90
2022-11-02T20:12:48.258Z,7.90
2022-11-02T20:15:17.653Z,7.90
2022-11-02T20:18:05.340Z,7.90
2022-11-02T20:20:33.598Z,7.90
2022-11-02T20:23:02.386Z,7.80
2022-11-02T20:25:30.346Z,7.80
2022-11-02T20:27:58.263Z,7.80
2022-11-02T20:30:27.559Z,7.80
2022-11-02T20:32:55.504Z,7.80
2022-11-02T20:35:25.806Z,7.80
2022-11-02T20:37:55.105Z,7.90
2022-11-02T20:40:23.770Z,7.90
2022-11-02T20:42:51.768Z,7.90
2022-11-02T20:45:19.704Z,7.90
2022-11-02T20:47:48.983Z,7.90
2022-11-02T20:50:19.420Z,7.90
2022-11-02T20:52:49.855Z,7.90
2022-11-02T20:55:17.975Z,7.90
2022-11-02T20:57:48.804Z,7.90
2022-11-02T21:00:18.640Z,7.90
2022-11-02T21:02:48.456Z,7.90
2022-11-02T21:05:16.758Z,7.90
2022-11-02T21:07:44.892Z,7.90
2022-11-02T21:10:12.851Z,7.90
2022-11-02T21:12:58.505Z,7.90
2022-11-02T21:15:26.725Z,7.90
2022-11-02T21:17:55.969Z,8.00
2022-11-02T21:20:39.449Z,8.00
2022-11-02T21:23:08.152Z,8.00
2022-11-02T21:25:36.506Z,8.00
2022-11-02T21:28:04.658Z,8.00
2022-11-02T21:30:32.698Z,8.00
2022-11-02T21:33:01.992Z,7.90
2022-11-02T21:35:29.938Z,7.90
2022-11-02T21:38:01.216Z,7.90
2022-11-02T21:40:31.850Z,7.90
2022-11-02T21:42:59.877Z,7.90
2022-11-02T21:45:27.846Z,7.90
2022-11-02T21:47:55.774Z,7.80
2022-11-02T21:50:25.046Z,7.80
2022-11-02T21:52:52.991Z,7.90
2022-11-02T21:55:20.908Z,7.80
2022-11-02T21:57:48.828Z,7.90
2022-11-02T22:00:17.304Z,7.80
2022-11-02T22:02:44.285Z,7.80
2022-11-02T22:05:32.304Z,7.80
2022-11-02T22:08:19.217Z,7.80
2022-11-02T22:10:47.152Z,7.80
2022-11-02T22:13:33.277Z,7.80
2022-11-02T22:16:08.878Z,7.80
2022-11-02T22:18:37.007Z,7.80
2022-11-02T22:21:05.139Z,7.80
2022-11-02T22:23:34.496Z,7.80
2022-11-02T22:26:04.791Z,7.80
2022-11-02T22:28:35.114Z,7.80
2022-11-02T22:31:07.401Z,7.80
2022-11-02T22:33:35.914Z,7.70
2022-11-02T22:36:09.423Z,7.70
2022-11-02T22:38:53.729Z,7.70
2022-11-02T22:41:24.314Z,7.70
2022-11-02T22:43:54.829Z,7.60
2022-11-02T22:46:23.715Z,7.60
2022-11-02T22:48:52.843Z,7.60
2022-11-02T22:51:21.945Z,7.60
2022-11-02T22:53:51.429Z,7.50
2022-11-02T22:56:21.413Z,7.50
2022-11-02T22:58:50.432Z,7.40
2022-11-02T23:01:20.103Z,7.40
2022-11-02T23:03:48.709Z,7.30
2022-11-02T23:06:18.281Z,7.30
2022-11-02T23:08:46.900Z,7.20
2022-11-02T23:11:22.835Z,7.20
2022-11-02T23:13:53.436Z,7.10
2022-11-02T23:16:23.104Z,7.10
2022-11-02T23:19:14.070Z,7.00
2022-11-02T23:21:43.926Z,7.00
2022-11-02T23:24:30.026Z,6.90
2022-11-02T23:26:59.329Z,6.90
2022-11-02T23:29:44.543Z,6.90
2022-11-02T23:32:29.299Z,6.90
2022-11-02T23:35:16.179Z,6.90
2022-11-02T23:37:45.298Z,6.90
2022-11-02T23:40:14.651Z,6.80
2022-11-02T23:42:44.181Z,6.80
2022-11-02T23:45:12.858Z,6.80
2022-11-02T23:48:00.552Z,6.80
2022-11-02T23:50:53.967Z,6.80
2022-11-02T23:53:41.086Z,6.80
2022-11-02T23:56:32.866Z,6.80
2022-11-02T23:59:07.883Z,6.90
